sensor_id;sensor_type;location;lat;lon;timestamp;pressure;altitude;pressure_sealevel;temperature;humidity
5966;BME280;3009;43.224;27.976;2023-08-07T00:00:46;99358.50;;;22.18;100.00
5966;BME280;3009;43.224;27.976;2023-08-07T00:03:15;99357.03;;;22.13;100.00
5966;BME280;3009;43.224;27.976;2023-08-07T00:05:45;99358.63;;;22.10;100.00
5966;BME280;3009;43.224;27.976;2023-08-07T00:08:14;99369.38;;;21.94;100.00
5966;BME280;3009;43.224;27.976;2023-08-07T00:10:42;99366.38;;;21.85;100.00
5966;BME280;3009;43.224;27.976;2023-08-07T00:13:12;99372.59;;;21.85;100.00
5966;BME280;3009;43.224;27.976;2023-08-07T00:15:41;99370.19;;;21.91;100.00
5966;BME280;3009;43.224;27.976;2023-08-07T00:18:09;99376.09;;;21.86;100.00
5966;BME280;3009;43.224;27.976;2023-08-07T00:20:37;99360.00;;;21.95;100.00
5966;BME280;3009;43.224;27.976;2023-08-07T00:23:06;99367.88;;;21.89;100.00
5966;BME280;3009;43.224;27.976;2023-08-07T00:25:34;99374.94;;;21.87;100.00
5966;BME280;3009;43.224;27.976;2023-08-07T00:28:03;99372.75;;;21.74;100.00
5966;BME280;3009;43.224;27.976;2023-08-07T00:30:33;99373.19;;;21.69;100.00
5966;BME280;3009;43.224;27.976;2023-08-07T00:33:01;99376.69;;;21.70;100.00
5966;BME280;3009;43.224;27.976;2023-08-07T00:35:30;99372.81;;;21.67;100.00
5966;BME280;3009;43.224;27.976;2023-08-07T00:37:58;99373.78;;;21.50;100.00
5966;BME280;3009;43.224;27.976;2023-08-07T00:40:26;99369.06;;;21.57;100.00
5966;BME280;3009;43.224;27.976;2023-08-07T00:42:55;99376.09;;;21.51;100.00
5966;BME280;3009;43.224;27.976;2023-08-07T00:45:23;99378.06;;;21.54;100.00
5966;BME280;3009;43.224;27.976;2023-08-07T00:47:53;99392.56;;;21.40;100.00
5966;BME280;3009;43.224;27.976;2023-08-07T00:50:22;99388.66;;;21.41;100.00
5966;BME280;3009;43.224;27.976;2023-08-07T00:53:00;99389.19;;;21.29;100.00
5966;BME280;3009;43.224;27.976;2023-08-07T00:55:29;99395.75;;;21.35;100.00
5966;BME280;3009;43.224;27.976;2023-08-07T00:57:58;99400.50;;;21.28;100.00
5966;BME280;3009;43.224;27.976;2023-08-07T01:00:27;99398.16;;;21.26;100.00
5966;BME280;3009;43.224;27.976;2023-08-07T01:02:59;99399.69;;;21.27;100.00
5966;BME280;3009;43.224;27.976;2023-08-07T01:05:29;99405.19;;;21.23;100.00
5966;BME280;3009;43.224;27.976;2023-08-07T01:07:57;99409.50;;;21.21;100.00
5966;BME280;3009;43.224;27.976;2023-08-07T01:10:35;99429.44;;;21.14;100.00
5966;BME280;3009;43.224;27.976;2023-08-07T01:13:13;99423.94;;;21.18;100.00
5966;BME280;3009;43.224;27.976;2023-08-07T01:15:44;99425.94;;;21.14;100.00
5966;BME280;3009;43.224;27.976;2023-08-07T01:18:17;99422.41;;;21.13;100.00
5966;BME280;3009;43.224;27.976;2023-08-07T01:20:45;99417.00;;;21.10;100.00
5966;BME280;3009;43.224;27.976;2023-08-07T01:23:15;99430.69;;;21.02;100.00
5966;BME280;3009;43.224;27.976;2023-08-07T01:25:44;99434.31;;;20.88;100.00
5966;BME280;3009;43.224;27.976;2023-08-07T01:28:18;99440.47;;;20.96;100.00
5966;BME280;3009;43.224;27.976;2023-08-07T01:30:54;99440.13;;;20.94;100.00
5966;BME280;3009;43.224;27.976;2023-08-07T01:33:27;99439.78;;;20.85;100.00
5966;BME280;3009;43.224;27.976;2023-08-07T01:36:02;99447.63;;;20.79;100.00
5966;BME280;3009;43.224;27.976;2023-08-07T01:38:33;99441.38;;;20.79;100.00
5966;BME280;3009;43.224;27.976;2023-08-07T01:41:03;99448.75;;;20.82;100.00
5966;BME280;3009;43.224;27.976;2023-08-07T01:43:32;99457.44;;;20.62;100.00
5966;BME280;3009;43.224;27.976;2023-08-07T01:46:01;99450.78;;;20.63;100.00
5966;BME280;3009;43.224;27.976;2023-08-07T01:48:29;99460.53;;;20.64;100.00
5966;BME280;3009;43.224;27.976;2023-08-07T01:50:58;99457.13;;;20.46;100.00
5966;BME280;3009;43.224;27.976;2023-08-07T01:53:26;99460.63;;;20.46;100.00
5966;BME280;3009;43.224;27.976;2023-08-07T01:55:56;99466.06;;;20.46;100.00
5966;BME280;3009;43.224;27.976;2023-08-07T01:58:25;99466.03;;;20.50;100.00
5966;BME280;3009;43.224;27.976;2023-08-07T02:00:53;99474.19;;;20.53;100.00
5966;BME280;3009;43.224;27.976;2023-08-07T02:03:22;99474.19;;;20.53;100.00
5966;BME280;3009;43.224;27.976;2023-08-07T02:05:50;99456.72;;;20.51;100.00
5966;BME280;3009;43.224;27.976;2023-08-07T02:08:19;99476.63;;;20.33;100.00
5966;BME280;3009;43.224;27.976;2023-08-07T02:10:47;99464.53;;;20.42;100.00
5966;BME280;3009;43.224;27.976;2023-08-07T02:13:17;99466.91;;;20.32;100.00
5966;BME280;3009;43.224;27.976;2023-08-07T02:15:46;99462.28;;;20.22;100.00
5966;BME280;3009;43.224;27.976;2023-08-07T02:18:14;99466.97;;;20.18;100.00
5966;BME280;3009;43.224;27.976;2023-08-07T02:20:44;99466.19;;;20.25;100.00
5966;BME280;3009;43.224;27.976;2023-08-07T02:23:13;99464.66;;;20.13;100.00
5966;BME280;3009;43.224;27.976;2023-08-07T02:25:41;99468.16;;;20.13;100.00
5966;BME280;3009;43.224;27.976;2023-08-07T02:28:12;99466.63;;;20.09;100.00
5966;BME280;3009;43.224;27.976;2023-08-07T02:30:45;99464.28;;;20.14;100.00
5966;BME280;3009;43.224;27.976;2023-08-07T02:33:15;99468.19;;;20.06;100.00
5966;BME280;3009;43.224;27.976;2023-08-07T02:35:43;99476.72;;;20.12;100.00
5966;BME280;3009;43.224;27.976;2023-08-07T02:38:12;99470.94;;;19.99;100.00
5966;BME280;3009;43.224;27.976;2023-08-07T02:40:41;99469.78;;;19.89;100.00
5966;BME280;3009;43.224;27.976;2023-08-07T02:43:09;99472.13;;;19.94;100.00
5966;BME280;3009;43.224;27.976;2023-08-07T02:45:37;99479.88;;;19.92;100.00
5966;BME280;3009;43.224;27.976;2023-08-07T02:48:07;99484.53;;;19.95;100.00
5966;BME280;3009;43.224;27.976;2023-08-07T02:50:36;99493.50;;;19.92;100.00
5966;BME280;3009;43.224;27.976;2023-08-07T02:53:04;99498.19;;;19.85;100.00
5966;BME280;3009;43.224;27.976;2023-08-07T02:55:33;99497.41;;;19.66;100.00
5966;BME280;3009;43.224;27.976;2023-08-07T02:58:01;99500.91;;;19.66;100.00
5966;BME280;3009;43.224;27.976;2023-08-07T03:00:30;99493.13;;;19.72;100.00
5966;BME280;3009;43.224;27.976;2023-08-07T03:02:58;99503.22;;;19.68;100.00
5966;BME280;3009;43.224;27.976;2023-08-07T03:05:29;99501.69;;;19.60;100.00
5966;BME280;3009;43.224;27.976;2023-08-07T03:07:57;99491.59;;;19.60;100.00
5966;BME280;3009;43.224;27.976;2023-08-07T03:10:26;99510.63;;;19.68;100.00
5966;BME280;3009;43.224;27.976;2023-08-07T03:12:54;99504.78;;;19.65;100.00
5966;BME280;3009;43.224;27.976;2023-08-07T03:15:23;99507.50;;;19.55;100.00
5966;BME280;3009;43.224;27.976;2023-08-07T03:17:51;99506.75;;;19.54;100.00
5966;BME280;3009;43.224;27.976;2023-08-07T03:20:20;99504.81;;;19.58;100.00
5966;BME280;3009;43.224;27.976;2023-08-07T03:22:49;99515.28;;;19.53;100.00
5966;BME280;3009;43.224;27.976;2023-08-07T03:25:18;99515.28;;;19.45;100.00
5966;BME280;3009;43.224;27.976;2023-08-07T03:27:46;99514.13;;;19.57;100.00
5966;BME280;3009;43.224;27.976;2023-08-07T03:30:15;99514.47;;;20.03;100.00
5966;BME280;3009;43.224;27.976;2023-08-07T03:32:43;99504.59;;;20.41;100.00
5966;BME280;3009;43.224;27.976;2023-08-07T03:35:12;99497.16;;;21.16;100.00
5966;BME280;3009;43.224;27.976;2023-08-07T03:37:40;99490.47;;;21.69;100.00
5966;BME280;3009;43.224;27.976;2023-08-07T03:40:11;99484.69;;;22.02;100.00
5966;BME280;3009;43.224;27.976;2023-08-07T03:42:39;99486.38;;;22.57;100.00
5966;BME280;3009;43.224;27.976;2023-08-07T03:45:08;99487.13;;;22.85;99.78
5966;BME280;3009;43.224;27.976;2023-08-07T03:47:37;99483.13;;;23.21;95.29
5966;BME280;3009;43.224;27.976;2023-08-07T03:50:06;99483.16;;;23.17;97.08
5966;BME280;3009;43.224;27.976;2023-08-07T03:52:35;99501.88;;;23.66;91.54
5966;BME280;3009;43.224;27.976;2023-08-07T03:55:04;99485.88;;;23.84;88.41
5966;BME280;3009;43.224;27.976;2023-08-07T03:57:34;99497.22;;;23.86;88.28
5966;BME280;3009;43.224;27.976;2023-08-07T04:00:02;99507.06;;;23.80;87.71
5966;BME280;3009;43.224;27.976;2023-08-07T04:02:31;99499.69;;;23.77;85.66
5966;BME280;3009;43.224;27.976;2023-08-07T04:04:59;99513.41;;;24.37;83.28
5966;BME280;3009;43.224;27.976;2023-08-07T04:07:28;99495.41;;;24.56;81.25
5966;BME280;3009;43.224;27.976;2023-08-07T04:09:56;99520.78;;;24.61;80.36
5966;BME280;3009;43.224;27.976;2023-08-07T04:12:25;99492.38;;;24.71;77.63
5966;BME280;3009;43.224;27.976;2023-08-07T04:14:54;99506.16;;;24.47;78.79
5966;BME280;3009;43.224;27.976;2023-08-07T04:17:23;99508.59;;;24.05;79.04
5966;BME280;3009;43.224;27.976;2023-08-07T04:19:51;99506.81;;;23.51;82.89
5966;BME280;3009;43.224;27.976;2023-08-07T04:22:20;99504.50;;;22.44;90.02
5966;BME280;3009;43.224;27.976;2023-08-07T04:24:48;99532.59;;;22.06;93.95
5966;BME280;3009;43.224;27.976;2023-08-07T04:27:16;99524.94;;;21.56;98.52
5966;BME280;3009;43.224;27.976;2023-08-07T04:29:45;99528.81;;;21.55;98.39
5966;BME280;3009;43.224;27.976;2023-08-07T04:32:15;99532.69;;;21.01;100.00
5966;BME280;3009;43.224;27.976;2023-08-07T04:34:43;99536.78;;;20.64;100.00
5966;BME280;3009;43.224;27.976;2023-08-07T04:37:12;99543.34;;;21.37;100.00
5966;BME280;3009;43.224;27.976;2023-08-07T04:39:40;99526.59;;;22.22;95.81
5966;BME280;3009;43.224;27.976;2023-08-07T04:42:09;99532.19;;;22.73;91.96
5966;BME280;3009;43.224;27.976;2023-08-07T04:44:37;99529.72;;;23.37;86.25
5966;BME280;3009;43.224;27.976;2023-08-07T04:47:06;99538.22;;;23.66;83.56
5966;BME280;3009;43.224;27.976;2023-08-07T04:49:35;99522.97;;;24.49;77.28
5966;BME280;3009;43.224;27.976;2023-08-07T04:52:04;99541.47;;;24.82;73.04
5966;BME280;3009;43.224;27.976;2023-08-07T04:54:50;99540.25;;;25.52;69.99
5966;BME280;3009;43.224;27.976;2023-08-07T04:57:18;99543.94;;;27.14;63.72
5966;BME280;3009;43.224;27.976;2023-08-07T04:59:48;99548.22;;;26.77;60.37
5966;BME280;3009;43.224;27.976;2023-08-07T05:02:17;99537.13;;;28.24;56.02
5966;BME280;3009;43.224;27.976;2023-08-07T05:04:47;99550.59;;;27.87;56.69
5966;BME280;3009;43.224;27.976;2023-08-07T05:07:16;99561.56;;;28.97;50.54
5966;BME280;3009;43.224;27.976;2023-08-07T05:09:44;99560.38;;;29.85;49.22
5966;BME280;3009;43.224;27.976;2023-08-07T05:12:13;99570.16;;;29.77;46.83
5966;BME280;3009;43.224;27.976;2023-08-07T05:14:41;99569.28;;;28.49;48.42
5966;BME280;3009;43.224;27.976;2023-08-07T05:17:10;99580.59;;;29.05;48.98
5966;BME280;3009;43.224;27.976;2023-08-07T05:19:40;99571.25;;;29.89;45.33
5966;BME280;3009;43.224;27.976;2023-08-07T05:22:10;99577.13;;;29.91;44.58
5966;BME280;3009;43.224;27.976;2023-08-07T05:24:38;99573.41;;;30.13;44.34
5966;BME280;3009;43.224;27.976;2023-08-07T05:27:08;99587.28;;;30.65;43.15
5966;BME280;3009;43.224;27.976;2023-08-07T05:29:37;99579.81;;;30.47;43.03
5966;BME280;3009;43.224;27.976;2023-08-07T05:32:11;99586.84;;;30.66;42.37
5966;BME280;3009;43.224;27.976;2023-08-07T05:34:39;99576.31;;;30.28;43.67
5966;BME280;3009;43.224;27.976;2023-08-07T05:37:09;99579.09;;;30.80;40.63
5966;BME280;3009;43.224;27.976;2023-08-07T05:39:38;99581.53;;;30.26;42.11
5966;BME280;3009;43.224;27.976;2023-08-07T05:42:06;99587.06;;;30.35;42.06
5966;BME280;3009;43.224;27.976;2023-08-07T05:44:36;99587.63;;;31.09;39.40
5966;BME280;3009;43.224;27.976;2023-08-07T05:47:06;99601.94;;;31.08;39.52
5966;BME280;3009;43.224;27.976;2023-08-07T05:49:35;99601.16;;;31.41;38.75
5966;BME280;3009;43.224;27.976;2023-08-07T05:52:04;99610.88;;;31.36;38.38
5966;BME280;3009;43.224;27.976;2023-08-07T05:54:34;99610.22;;;31.41;37.83
5966;BME280;3009;43.224;27.976;2023-08-07T05:57:03;99604.91;;;30.95;38.63
5966;BME280;3009;43.224;27.976;2023-08-07T05:59:31;99596.59;;;30.95;38.29
5966;BME280;3009;43.224;27.976;2023-08-07T06:02:02;99606.94;;;30.76;39.61
5966;BME280;3009;43.224;27.976;2023-08-07T06:04:31;99613.16;;;30.34;39.00
5966;BME280;3009;43.224;27.976;2023-08-07T06:06:59;99621.88;;;30.79;38.81
5966;BME280;3009;43.224;27.976;2023-08-07T06:09:28;99631.41;;;31.20;37.72
5966;BME280;3009;43.224;27.976;2023-08-07T06:11:58;99636.09;;;31.05;37.67
5966;BME280;3009;43.224;27.976;2023-08-07T06:14:27;99638.56;;;29.45;39.85
5966;BME280;3009;43.224;27.976;2023-08-07T06:16:56;99640.19;;;30.39;39.32
5966;BME280;3009;43.224;27.976;2023-08-07T06:19:26;99639.06;;;30.83;38.78
5966;BME280;3009;43.224;27.976;2023-08-07T06:21:58;99632.94;;;31.21;37.38
5966;BME280;3009;43.224;27.976;2023-08-07T06:24:28;99640.53;;;30.50;38.11
5966;BME280;3009;43.224;27.976;2023-08-07T06:26:57;99639.41;;;30.57;37.70
5966;BME280;3009;43.224;27.976;2023-08-07T06:29:26;99630.94;;;29.77;38.06
5966;BME280;3009;43.224;27.976;2023-08-07T06:31:54;99638.28;;;30.82;37.18
5966;BME280;3009;43.224;27.976;2023-08-07T06:34:23;99633.31;;;30.53;37.80
5966;BME280;3009;43.224;27.976;2023-08-07T06:36:52;99633.91;;;30.48;37.58
5966;BME280;3009;43.224;27.976;2023-08-07T06:39:20;99632.94;;;30.79;37.44
5966;BME280;3009;43.224;27.976;2023-08-07T06:41:49;99617.50;;;31.30;36.54
5966;BME280;3009;43.224;27.976;2023-08-07T06:44:18;99617.75;;;31.17;37.00
5966;BME280;3009;43.224;27.976;2023-08-07T06:46:47;99636.09;;;30.96;36.31
5966;BME280;3009;43.224;27.976;2023-08-07T06:49:15;99637.72;;;30.60;36.23
5966;BME280;3009;43.224;27.976;2023-08-07T06:51:44;99641.13;;;30.27;36.63
5966;BME280;3009;43.224;27.976;2023-08-07T06:54:12;99640.91;;;29.15;38.09
5966;BME280;3009;43.224;27.976;2023-08-07T06:56:41;99645.50;;;29.19;39.56
5966;BME280;3009;43.224;27.976;2023-08-07T06:59:10;99656.72;;;29.65;38.57
5966;BME280;3009;43.224;27.976;2023-08-07T07:01:40;99648.13;;;29.72;37.74
5966;BME280;3009;43.224;27.976;2023-08-07T07:04:08;99659.34;;;29.78;38.40
5966;BME280;3009;43.224;27.976;2023-08-07T07:06:37;99663.25;;;30.64;37.31
5966;BME280;3009;43.224;27.976;2023-08-07T07:09:06;99678.97;;;29.61;39.07
5966;BME280;3009;43.224;27.976;2023-08-07T07:11:34;99668.94;;;30.04;37.77
5966;BME280;3009;43.224;27.976;2023-08-07T07:14:02;99679.53;;;30.62;36.83
5966;BME280;3009;43.224;27.976;2023-08-07T07:16:31;99663.25;;;30.17;37.43
5966;BME280;3009;43.224;27.976;2023-08-07T07:19:01;99662.03;;;30.09;37.72
5966;BME280;3009;43.224;27.976;2023-08-07T07:21:29;99666.78;;;30.09;37.95
5966;BME280;3009;43.224;27.976;2023-08-07T07:23:58;99670.19;;;29.54;38.31
5966;BME280;3009;43.224;27.976;2023-08-07T07:26:26;99682.56;;;30.82;36.40
5966;BME280;3009;43.224;27.976;2023-08-07T07:28:54;99681.31;;;30.92;35.79
5966;BME280;3009;43.224;27.976;2023-08-07T07:31:23;99676.84;;;29.65;37.47
5966;BME280;3009;43.224;27.976;2023-08-07T07:33:51;99679.41;;;29.50;37.30
5966;BME280;3009;43.224;27.976;2023-08-07T07:36:21;99675.03;;;29.81;36.68
5966;BME280;3009;43.224;27.976;2023-08-07T07:38:50;99672.94;;;30.03;36.19
5966;BME280;3009;43.224;27.976;2023-08-07T07:41:18;99670.28;;;30.65;35.14
5966;BME280;3009;43.224;27.976;2023-08-07T07:43:47;99679.38;;;28.88;37.83
5966;BME280;3009;43.224;27.976;2023-08-07T07:46:15;99692.03;;;29.70;37.05
5966;BME280;3009;43.224;27.976;2023-08-07T07:48:43;99687.59;;;28.78;39.56
5966;BME280;3009;43.224;27.976;2023-08-07T07:51:12;99686.03;;;28.99;38.03
5966;BME280;3009;43.224;27.976;2023-08-07T07:53:42;99699.50;;;28.53;39.65
5966;BME280;3009;43.224;27.976;2023-08-07T07:56:10;99703.19;;;28.72;40.25
5966;BME280;3009;43.224;27.976;2023-08-07T07:58:39;99705.31;;;27.98;40.90
5966;BME280;3009;43.224;27.976;2023-08-07T08:01:08;99707.00;;;27.44;42.09
5966;BME280;3009;43.224;27.976;2023-08-07T08:03:37;99715.25;;;26.89;43.16
5966;BME280;3009;43.224;27.976;2023-08-07T08:06:05;99712.50;;;26.60;44.03
5966;BME280;3009;43.224;27.976;2023-08-07T08:08:34;99709.03;;;26.43;44.73
5966;BME280;3009;43.224;27.976;2023-08-07T08:11:03;99701.78;;;26.20;46.29
5966;BME280;3009;43.224;27.976;2023-08-07T08:13:32;99708.78;;;26.21;45.28
5966;BME280;3009;43.224;27.976;2023-08-07T08:16:03;99693.09;;;26.21;44.83
5966;BME280;3009;43.224;27.976;2023-08-07T08:18:31;99695.00;;;26.08;44.68
5966;BME280;3009;43.224;27.976;2023-08-07T08:21:00;99705.63;;;26.22;44.34
5966;BME280;3009;43.224;27.976;2023-08-07T08:23:28;99701.19;;;26.12;44.92
5966;BME280;3009;43.224;27.976;2023-08-07T08:25:57;99700.81;;;26.10;44.82
5966;BME280;3009;43.224;27.976;2023-08-07T08:28:27;99706.03;;;26.21;45.64
5966;BME280;3009;43.224;27.976;2023-08-07T08:30:55;99700.31;;;26.15;44.99
5966;BME280;3009;43.224;27.976;2023-08-07T08:33:24;99700.63;;;26.33;45.58
5966;BME280;3009;43.224;27.976;2023-08-07T08:35:52;99712.91;;;26.29;45.15
5966;BME280;3009;43.224;27.976;2023-08-07T08:38:20;99706.19;;;26.30;44.83
5966;BME280;3009;43.224;27.976;2023-08-07T08:40:51;99707.50;;;26.09;45.04
5966;BME280;3009;43.224;27.976;2023-08-07T08:43:20;99714.06;;;26.15;45.67
5966;BME280;3009;43.224;27.976;2023-08-07T08:45:51;99728.88;;;26.34;44.12
5966;BME280;3009;43.224;27.976;2023-08-07T08:48:20;99722.78;;;26.26;45.28
5966;BME280;3009;43.224;27.976;2023-08-07T08:50:51;99725.66;;;26.52;44.54
5966;BME280;3009;43.224;27.976;2023-08-07T08:53:20;99721.63;;;26.40;45.83
5966;BME280;3009;43.224;27.976;2023-08-07T08:55:50;99714.91;;;26.58;45.24
5966;BME280;3009;43.224;27.976;2023-08-07T08:58:20;99720.16;;;26.68;44.60
5966;BME280;3009;43.224;27.976;2023-08-07T09:00:51;99720.31;;;26.61;44.96
5966;BME280;3009;43.224;27.976;2023-08-07T09:03:20;99717.06;;;26.66;44.10
5966;BME280;3009;43.224;27.976;2023-08-07T09:05:49;99732.25;;;26.71;44.04
5966;BME280;3009;43.224;27.976;2023-08-07T09:08:22;99733.78;;;26.72;42.84
5966;BME280;3009;43.224;27.976;2023-08-07T09:10:52;99741.63;;;26.57;43.22
5966;BME280;3009;43.224;27.976;2023-08-07T09:13:23;99741.75;;;26.83;42.83
5966;BME280;3009;43.224;27.976;2023-08-07T09:15:54;99725.53;;;27.01;42.43
5966;BME280;3009;43.224;27.976;2023-08-07T09:18:23;99731.72;;;27.18;43.41
5966;BME280;3009;43.224;27.976;2023-08-07T09:20:52;99738.66;;;27.23;42.85
5966;BME280;3009;43.224;27.976;2023-08-07T09:23:20;99738.34;;;27.21;41.73
5966;BME280;3009;43.224;27.976;2023-08-07T09:25:58;99736.28;;;27.38;41.62
5966;BME280;3009;43.224;27.976;2023-08-07T09:28:28;99732.72;;;27.24;40.76
5966;BME280;3009;43.224;27.976;2023-08-07T09:30:59;99733.69;;;27.18;39.95
5966;BME280;3009;43.224;27.976;2023-08-07T09:33:29;99740.53;;;27.26;42.37
5966;BME280;3009;43.224;27.976;2023-08-07T09:35:58;99747.19;;;27.41;42.70
5966;BME280;3009;43.224;27.976;2023-08-07T09:38:28;99738.25;;;27.50;43.07
5966;BME280;3009;43.224;27.976;2023-08-07T09:40:58;99737.38;;;27.53;42.84
5966;BME280;3009;43.224;27.976;2023-08-07T09:43:28;99720.41;;;27.81;41.49
5966;BME280;3009;43.224;27.976;2023-08-07T09:46:03;99728.66;;;27.81;43.00
5966;BME280;3009;43.224;27.976;2023-08-07T09:48:39;99737.06;;;27.77;41.43
5966;BME280;3009;43.224;27.976;2023-08-07T09:51:08;99741.81;;;27.76;40.08
5966;BME280;3009;43.224;27.976;2023-08-07T09:53:37;99754.69;;;27.54;39.40
5966;BME280;3009;43.224;27.976;2023-08-07T09:56:06;99734.66;;;27.66;40.07
5966;BME280;3009;43.224;27.976;2023-08-07T09:58:34;99740.38;;;27.98;40.43
5966;BME280;3009;43.224;27.976;2023-08-07T10:01:04;99741.78;;;27.89;39.35
5966;BME280;3009;43.224;27.976;2023-08-07T10:03:34;99741.91;;;27.86;39.43
5966;BME280;3009;43.224;27.976;2023-08-07T10:06:04;99741.00;;;28.02;39.11
5966;BME280;3009;43.224;27.976;2023-08-07T10:08:33;99739.38;;;28.04;38.00
5966;BME280;3009;43.224;27.976;2023-08-07T10:11:03;99728.56;;;28.10;38.69
5966;BME280;3009;43.224;27.976;2023-08-07T10:13:32;99737.47;;;28.14;38.38
5966;BME280;3009;43.224;27.976;2023-08-07T10:16:07;99723.41;;;27.99;38.16
5966;BME280;3009;43.224;27.976;2023-08-07T10:18:36;99745.19;;;28.06;38.06
5966;BME280;3009;43.224;27.976;2023-08-07T10:21:05;99737.06;;;28.03;37.95
5966;BME280;3009;43.224;27.976;2023-08-07T10:23:35;99731.75;;;27.96;37.60
5966;BME280;3009;43.224;27.976;2023-08-07T10:26:04;99737.91;;;27.87;38.11
5966;BME280;3009;43.224;27.976;2023-08-07T10:28:36;99734.38;;;28.12;38.07
5966;BME280;3009;43.224;27.976;2023-08-07T10:31:07;99750.38;;;27.91;38.28
5966;BME280;3009;43.224;27.976;2023-08-07T10:33:37;99753.16;;;28.04;38.19
5966;BME280;3009;43.224;27.976;2023-08-07T10:36:10;99739.00;;;28.15;38.40
5966;BME280;3009;43.224;27.976;2023-08-07T10:38:39;99734.69;;;28.27;38.45
5966;BME280;3009;43.224;27.976;2023-08-07T10:41:10;99745.72;;;28.27;37.46
5966;BME280;3009;43.224;27.976;2023-08-07T10:43:41;99748.16;;;28.12;37.74
5966;BME280;3009;43.224;27.976;2023-08-07T10:46:15;99749.63;;;28.04;37.26
5966;BME280;3009;43.224;27.976;2023-08-07T10:48:48;99749.72;;;28.00;37.66
5966;BME280;3009;43.224;27.976;2023-08-07T10:51:28;99742.09;;;27.91;38.08
5966;BME280;3009;43.224;27.976;2023-08-07T10:53:57;99747.72;;;28.14;39.49
5966;BME280;3009;43.224;27.976;2023-08-07T10:56:30;99743.53;;;28.22;38.49
5966;BME280;3009;43.224;27.976;2023-08-07T10:59:07;99738.13;;;28.18;37.03
5966;BME280;3009;43.224;27.976;2023-08-07T11:01:42;99758.78;;;28.01;36.23
5966;BME280;3009;43.224;27.976;2023-08-07T11:04:12;99743.44;;;28.00;35.95
5966;BME280;3009;43.224;27.976;2023-08-07T11:06:42;99738.91;;;28.06;35.94
5966;BME280;3009;43.224;27.976;2023-08-07T11:09:11;99744.72;;;28.21;36.62
5966;BME280;3009;43.224;27.976;2023-08-07T11:11:43;99751.78;;;28.22;35.84
5966;BME280;3009;43.224;27.976;2023-08-07T11:14:13;99754.88;;;28.24;35.75
5966;BME280;3009;43.224;27.976;2023-08-07T11:16:45;99740.31;;;28.23;35.82
5966;BME280;3009;43.224;27.976;2023-08-07T11:19:14;99750.66;;;28.32;36.48
5966;BME280;3009;43.224;27.976;2023-08-07T11:21:43;99746.38;;;28.66;36.38
5966;BME280;3009;43.224;27.976;2023-08-07T11:24:12;99732.78;;;28.72;37.20
5966;BME280;3009;43.224;27.976;2023-08-07T11:26:42;99753.00;;;28.56;34.92
5966;BME280;3009;43.224;27.976;2023-08-07T11:29:16;99739.06;;;28.37;34.00
5966;BME280;3009;43.224;27.976;2023-08-07T11:31:46;99740.47;;;28.42;34.62
5966;BME280;3009;43.224;27.976;2023-08-07T11:34:16;99747.00;;;28.35;35.08
5966;BME280;3009;43.224;27.976;2023-08-07T11:36:46;99749.75;;;28.35;35.28
5966;BME280;3009;43.224;27.976;2023-08-07T11:39:15;99744.25;;;28.35;35.30
5966;BME280;3009;43.224;27.976;2023-08-07T11:41:44;99753.25;;;28.49;35.89
5966;BME280;3009;43.224;27.976;2023-08-07T11:44:12;99737.31;;;28.31;34.99
5966;BME280;3009;43.224;27.976;2023-08-07T11:46:41;99736.97;;;28.41;36.67
5966;BME280;3009;43.224;27.976;2023-08-07T11:49:11;99731.19;;;28.49;34.89
5966;BME280;3009;43.224;27.976;2023-08-07T11:51:40;99732.66;;;28.40;35.97
5966;BME280;3009;43.224;27.976;2023-08-07T11:54:15;99732.06;;;28.45;35.90
5966;BME280;3009;43.224;27.976;2023-08-07T11:56:45;99735.34;;;28.66;34.48
5966;BME280;3009;43.224;27.976;2023-08-07T11:59:16;99739.97;;;28.69;33.79
5966;BME280;3009;43.224;27.976;2023-08-07T12:01:45;99731.09;;;28.74;34.57
5966;BME280;3009;43.224;27.976;2023-08-07T12:04:17;99740.47;;;28.77;34.49
5966;BME280;3009;43.224;27.976;2023-08-07T12:06:53;99741.06;;;28.59;35.70
5966;BME280;3009;43.224;27.976;2023-08-07T12:09:25;99725.28;;;28.72;35.30
5966;BME280;3009;43.224;27.976;2023-08-07T12:11:56;99721.16;;;28.77;35.38
5966;BME280;3009;43.224;27.976;2023-08-07T12:14:28;99728.78;;;28.95;34.89
5966;BME280;3009;43.224;27.976;2023-08-07T12:16:57;99730.19;;;28.77;34.36
5966;BME280;3009;43.224;27.976;2023-08-07T12:19:35;99726.28;;;28.88;34.54
5966;BME280;3009;43.224;27.976;2023-08-07T12:22:06;99727.13;;;28.97;33.92
5966;BME280;3009;43.224;27.976;2023-08-07T12:24:35;99733.56;;;28.94;33.69
5966;BME280;3009;43.224;27.976;2023-08-07T12:27:05;99732.16;;;28.90;33.25
5966;BME280;3009;43.224;27.976;2023-08-07T12:29:34;99731.16;;;28.84;33.09
5966;BME280;3009;43.224;27.976;2023-08-07T12:32:02;99728.41;;;28.84;33.46
5966;BME280;3009;43.224;27.976;2023-08-07T12:34:32;99724.53;;;29.03;33.90
5966;BME280;3009;43.224;27.976;2023-08-07T12:37:02;99723.19;;;29.08;32.70
5966;BME280;3009;43.224;27.976;2023-08-07T12:39:30;99730.66;;;28.98;32.59
5966;BME280;3009;43.224;27.976;2023-08-07T12:42:02;99725.59;;;28.96;31.95
5966;BME280;3009;43.224;27.976;2023-08-07T12:44:34;99731.69;;;28.91;31.12
5966;BME280;3009;43.224;27.976;2023-08-07T12:47:03;99725.72;;;28.93;31.81
5966;BME280;3009;43.224;27.976;2023-08-07T12:49:33;99721.09;;;28.90;32.43
5966;BME280;3009;43.224;27.976;2023-08-07T12:52:01;99722.50;;;28.94;31.42
5966;BME280;3009;43.224;27.976;2023-08-07T12:54:30;99722.63;;;28.91;31.10
5966;BME280;3009;43.224;27.976;2023-08-07T12:56:59;99731.28;;;29.02;31.52
5966;BME280;3009;43.224;27.976;2023-08-07T12:59:27;99735.97;;;29.14;31.43
5966;BME280;3009;43.224;27.976;2023-08-07T13:01:55;99729.03;;;29.10;30.83
5966;BME280;3009;43.224;27.976;2023-08-07T13:04:24;99726.22;;;29.01;31.66
5966;BME280;3009;43.224;27.976;2023-08-07T13:06:54;99723.78;;;29.03;32.28
5966;BME280;3009;43.224;27.976;2023-08-07T13:09:23;99732.56;;;29.10;32.07
5966;BME280;3009;43.224;27.976;2023-08-07T13:11:51;99731.78;;;29.10;32.29
5966;BME280;3009;43.224;27.976;2023-08-07T13:14:19;99744.03;;;29.09;31.98
5966;BME280;3009;43.224;27.976;2023-08-07T13:16:48;99748.47;;;29.06;31.77
5966;BME280;3009;43.224;27.976;2023-08-07T13:19:18;99746.50;;;29.07;31.63